createdAt,value
2018-01-16T20:31:52.612Z,51.85
2018-01-16T20:34:19.247Z,51.85
2018-01-16T20:36:45.851Z,51.44
2018-01-16T20:39:12.165Z,51.54
2018-01-16T20:41:38.541Z,51.41
2018-01-16T20:44:05.119Z,51.06
2018-01-16T20:46:31.925Z,50.94
2018-01-16T20:48:58.540Z,50.95
2018-01-16T20:51:24.837Z,50.77
2018-01-16T20:53:51.418Z,50.90
2018-01-16T20:56:18.504Z,51.02
2018-01-16T20:58:44.828Z,50.83
2018-01-16T21:01:11.591Z,50.59
2018-01-16T21:03:38.945Z,50.49
2018-01-16T21:06:06.014Z,50.29
2018-01-16T21:08:33.365Z,50.11
2018-01-16T21:11:00.514Z,50.02
2018-01-16T21:13:27.141Z,49.83
2018-01-16T21:15:53.747Z,49.85
2018-01-16T21:18:20.318Z,49.64
2018-01-16T21:20:46.917Z,49.81
2018-01-16T21:23:13.657Z,49.26
2018-01-16T21:25:40.276Z,49.33
2018-01-16T21:28:07.462Z,49.39
2018-01-16T21:30:34.077Z,49.27
2018-01-16T21:33:01.412Z,49.01
2018-01-16T21:35:27.846Z,48.89
2018-01-16T21:37:54.238Z,48.98
2018-01-16T21:40:20.902Z,49.29
2018-01-16T21:42:47.254Z,49.66
2018-01-16T21:45:13.610Z,49.94
2018-01-16T21:47:40.100Z,50.09
2018-01-16T21:50:06.557Z,50.32
2018-01-16T21:52:33.252Z,50.66
2018-01-16T21:55:00.685Z,50.85
2018-01-16T21:57:27.041Z,51.07
2018-01-16T21:59:53.609Z,51.32
2018-01-16T22:02:21.014Z,51.49
2018-01-16T22:04:47.315Z,51.68
2018-01-16T22:07:13.735Z,51.87
2018-01-16T22:09:41.141Z,52.17
2018-01-16T22:12:07.418Z,52.66
2018-01-16T22:14:34.476Z,53.00
2018-01-16T22:17:01.523Z,53.21
2018-01-16T22:19:28.248Z,53.39
2018-01-16T22:21:54.990Z,53.86
2018-01-16T22:24:21.294Z,54.15
2018-01-16T22:26:48.093Z,54.21
2018-01-16T22:29:14.445Z,54.36
2018-01-16T22:31:41.496Z,54.44
2018-01-16T22:34:07.802Z,54.58
2018-01-16T22:36:34.225Z,54.70
2018-01-16T22:39:01.096Z,54.72
2018-01-16T22:41:27.430Z,54.83
2018-01-16T22:43:53.929Z,54.77
2018-01-16T22:46:20.233Z,54.81
2018-01-16T22:48:46.636Z,54.91
2018-01-16T22:51:13.336Z,55.03
2018-01-16T22:53:39.633Z,55.01
2018-01-16T22:56:05.933Z,55.07
2018-01-16T22:58:32.272Z,55.02
2018-01-16T23:00:58.891Z,55.12
2018-01-16T23:03:25.193Z,55.32
2018-01-16T23:05:51.468Z,55.39
2018-01-16T23:08:18.075Z,55.44
2018-01-16T23:10:44.365Z,56.60
2018-01-16T23:13:10.673Z,55.02
2018-01-16T23:15:36.962Z,54.97
2018-01-16T23:18:03.483Z,55.02
2018-01-16T23:20:29.761Z,55.06
2018-01-16T23:22:56.792Z,55.02
2018-01-16T23:25:23.110Z,55.01
2018-01-16T23:27:49.760Z,54.88
2018-01-16T23:30:16.059Z,55.02
2018-01-16T23:32:42.348Z,54.61
2018-01-16T23:35:08.651Z,54.79
2018-01-16T23:37:34.947Z,54.63
2018-01-16T23:40:01.998Z,54.68
2018-01-16T23:42:29.022Z,54.70
2018-01-16T23:44:55.305Z,54.51
2018-01-16T23:47:21.596Z,54.41
2018-01-16T23:49:47.888Z,54.20
2018-01-16T23:52:14.201Z,54.44
2018-01-16T23:54:40.565Z,54.18
2018-01-16T23:57:07.121Z,54.13
2018-01-16T23:59:33.812Z,54.19
